Time;durP1;ratioP1;P1;durP2;ratioP2;P2;SDS_P1;SDS_P2;PMS_P1;PMS_P2;Temp;Humidity;BMP_temperature;BMP_pressure;BME280_temperature;BME280_humidity;BME280_pressure;Samples;Min_cycle;Max_cycle;Signal;HPM_P1;HPM_P2
2021/07/11 00:02:19;;;;;;;13.00;9.73;;;18.00;99.90;;;;;;5032443;28;20040;-82
2021/07/11 00:04:45;;;;;;;12.30;10.00;;;18.00;99.90;;;;;;5048850;28;20037;-82
2021/07/11 00:07:14;;;;;;;11.15;9.02;;;18.10;99.90;;;;;;5032353;28;20050;-82
2021/07/11 00:09:43;;;;;;;14.47;10.33;;;18.10;99.90;;;;;;5032394;28;20041;-82
2021/07/11 00:12:09;;;;;;;12.65;9.77;;;18.10;99.90;;;;;;5048949;28;20033;-83
2021/07/11 00:14:36;;;;;;;12.57;9.50;;;18.10;99.90;;;;;;5032175;28;20047;-82
2021/07/11 00:17:02;;;;;;;12.27;8.85;;;18.10;99.90;;;;;;5031913;28;20082;-83
2021/07/11 00:19:27;;;;;;;10.52;8.35;;;18.00;99.90;;;;;;5048470;28;20061;-83
2021/07/11 00:21:53;;;;;;;12.10;9.27;;;18.10;99.90;;;;;;5032164;28;20083;-82
2021/07/11 00:24:19;;;;;;;10.60;8.15;;;18.10;99.90;;;;;;5048662;28;20060;-83
2021/07/11 00:26:44;;;;;;;13.40;8.88;;;18.10;99.90;;;;;;5032136;28;20029;-83
2021/07/11 00:29:10;;;;;;;14.45;10.00;;;18.20;99.90;;;;;;5032027;28;20075;-82
2021/07/11 00:31:36;;;;;;;11.23;8.93;;;18.20;99.90;;;;;;5032305;28;20025;-83
2021/07/11 00:34:01;;;;;;;12.32;9.18;;;18.20;99.90;;;;;;5033414;28;20102;-83
2021/07/11 00:36:27;;;;;;;9.85;8.48;;;18.20;99.90;;;;;;5033214;28;20385;-83
2021/07/11 00:38:53;;;;;;;13.85;9.95;;;18.20;99.90;;;;;;5032130;28;20029;-83
2021/07/11 00:41:22;;;;;;;11.95;8.95;;;18.10;99.90;;;;;;5032636;28;20036;-83
2021/07/11 00:43:47;;;;;;;12.30;9.48;;;18.00;99.90;;;;;;5048285;28;20405;-83
2021/07/11 00:46:18;;;;;;;16.48;10.07;;;18.00;99.90;;;;;;5047833;28;20497;-83
2021/07/11 00:48:48;;;;;;;13.10;9.70;;;18.00;99.90;;;;;;5054463;23;20102;-82
2021/07/11 00:51:14;;;;;;;12.52;8.13;;;18.00;99.90;;;;;;5031992;28;20037;-82
2021/07/11 00:53:54;;;;;;;13.50;10.10;;;18.00;99.90;;;;;;5048392;28;20040;-82
2021/07/11 00:56:27;;;;;;;10.50;7.82;;;18.00;99.90;;;;;;5022108;28;20026;-82
2021/07/11 00:58:55;;;;;;;11.68;8.43;;;17.90;99.90;;;;;;5044824;28;20037;-82
2021/07/11 01:01:40;;;;;;;12.10;9.25;;;17.90;99.90;;;;;;5028446;28;20034;-82
2021/07/11 01:04:28;;;;;;;11.02;8.43;;;17.90;99.90;;;;;;5044927;28;20060;-82
2021/07/11 01:07:00;;;;;;;10.57;7.90;;;17.90;99.90;;;;;;5044549;28;20035;-82
2021/07/11 01:09:41;;;;;;;11.85;8.98;;;17.90;99.90;;;;;;5044846;28;20057;-82
2021/07/11 01:12:20;;;;;;;9.48;8.07;;;17.80;99.90;;;;;;5044846;28;20029;-81
2021/07/11 01:14:49;;;;;;;14.57;8.65;;;17.80;99.90;;;;;;5044842;28;20030;-82
2021/07/11 01:17:20;;;;;;;11.60;9.23;;;17.80;99.90;;;;;;5028381;28;20030;-82
2021/07/11 01:19:55;;;;;;;11.98;9.35;;;17.80;99.90;;;;;;5027765;28;20061;-81
2021/07/11 01:22:26;;;;;;;12.75;9.15;;;17.80;99.90;;;;;;5011578;28;20029;-82
2021/07/11 01:25:10;;;;;;;14.10;10.43;;;17.80;99.90;;;;;;5044397;28;20029;-82
2021/07/11 01:27:37;;;;;;;12.15;9.27;;;17.80;99.90;;;;;;5044122;28;20044;-82
2021/07/11 01:30:07;;;;;;;14.73;9.43;;;17.80;99.90;;;;;;5044131;28;20072;-83
2021/07/11 01:32:38;;;;;;;12.77;9.93;;;17.80;99.90;;;;;;5044005;28;20029;-82
2021/07/11 01:35:05;;;;;;;13.00;8.40;;;17.80;99.90;;;;;;5027605;28;20489;-83
2021/07/11 01:37:33;;;;;;;10.98;8.80;;;17.90;99.90;;;;;;5043980;28;20057;-82
2021/07/11 01:40:00;;;;;;;13.10;9.85;;;17.80;99.90;;;;;;5044196;28;20091;-82
2021/07/11 01:42:28;;;;;;;15.27;11.23;;;17.80;99.90;;;;;;5043991;28;20034;-82
2021/07/11 01:44:56;;;;;;;12.50;9.77;;;17.80;99.90;;;;;;5043931;28;20033;-82
2021/07/11 01:47:22;;;;;;;11.63;8.50;;;17.90;99.90;;;;;;5046173;28;20025;-83
2021/07/11 01:49:48;;;;;;;14.63;10.55;;;17.90;99.90;;;;;;5030294;28;20548;-83
2021/07/11 01:52:14;;;;;;;12.48;8.95;;;17.80;99.90;;;;;;5030903;28;20370;-83
2021/07/11 01:54:41;;;;;;;10.38;8.77;;;17.90;99.90;;;;;;5030778;28;20535;-83
2021/07/11 01:57:09;;;;;;;10.30;8.30;;;17.80;99.90;;;;;;5028128;28;20025;-82
2021/07/11 01:59:45;;;;;;;12.52;8.50;;;17.80;99.90;;;;;;5033739;28;20028;-83
2021/07/11 02:02:24;;;;;;;;;;;17.80;99.90;;;;;;5037331;28;20021;-83
2021/07/11 02:05:10;;;;;;;12.13;8.45;;;17.80;99.90;;;;;;5051486;28;19946;-83
2021/07/11 02:07:36;;;;;;;10.40;7.47;;;17.90;99.90;;;;;;5034621;28;20419;-83
2021/07/11 02:10:08;;;;;;;8.73;6.88;;;17.70;99.90;;;;;;5034587;28;20104;-82
2021/07/11 02:12:41;;;;;;;11.63;9.20;;;17.70;99.90;;;;;;5034672;28;20092;-83
2021/07/11 02:15:09;;;;;;;12.68;9.50;;;17.60;99.90;;;;;;5034748;28;20045;-83
2021/07/11 02:17:41;;;;;;;13.55;9.63;;;17.70;99.90;;;;;;5034387;28;20021;-83
2021/07/11 02:20:19;;;;;;;15.05;11.07;;;17.60;99.90;;;;;;5050971;28;20056;-83
2021/07/11 02:22:48;;;;;;;12.55;10.38;;;17.50;99.90;;;;;;5051577;28;20085;-83
2021/07/11 02:25:19;;;;;;;15.18;10.32;;;17.50;99.90;;;;;;5035023;28;20025;-83
2021/07/11 02:27:50;;;;;;;13.75;10.85;;;17.50;99.90;;;;;;5051963;28;20096;-83
2021/07/11 02:30:18;;;;;;;13.75;10.77;;;17.50;99.90;;;;;;5050766;28;20045;-83
2021/07/11 02:32:53;;;;;;;14.65;11.00;;;17.50;99.90;;;;;;5034231;28;20053;-83
2021/07/11 02:35:29;;;;;;;13.05;9.90;;;17.40;99.90;;;;;;5050760;28;20037;-83
2021/07/11 02:37:58;;;;;;;13.82;10.15;;;17.40;99.90;;;;;;5050463;28;20148;-83
2021/07/11 02:40:24;;;;;;;16.73;11.10;;;17.40;99.90;;;;;;5068642;28;20077;-82
2021/07/11 02:42:54;;;;;;;12.93;10.00;;;17.40;99.90;;;;;;5033999;28;20040;-83
2021/07/11 02:45:24;;;;;;;14.68;11.25;;;17.40;99.90;;;;;;5034429;28;20028;-83
2021/07/11 02:47:51;;;;;;;13.45;9.13;;;17.40;99.90;;;;;;5032272;28;20060;-83
2021/07/11 02:50:18;;;;;;;14.35;10.07;;;17.40;99.90;;;;;;5033606;28;20045;-83
2021/07/11 02:52:48;;;;;;;13.32;9.48;;;17.40;99.90;;;;;;5042918;28;20391;-83
2021/07/11 02:55:23;;;;;;;14.13;10.38;;;17.30;99.90;;;;;;5034622;28;20060;-83
2021/07/11 02:57:58;;;;;;;12.65;9.57;;;17.40;99.90;;;;;;5050045;28;20040;-83
2021/07/11 03:00:25;;;;;;;12.23;9.93;;;17.40;99.90;;;;;;5033883;28;20047;-83
2021/07/11 03:02:52;;;;;;;13.35;10.70;;;17.30;99.90;;;;;;5049977;28;20067;-83
2021/07/11 03:05:27;;;;;;;13.43;10.00;;;17.30;99.90;;;;;;5034834;28;20059;-83
2021/07/11 03:07:56;;;;;;;14.20;9.52;;;17.30;99.90;;;;;;5033863;28;20033;-83
2021/07/11 03:10:23;;;;;;;14.25;10.82;;;17.30;99.90;;;;;;5049522;28;20041;-83
2021/07/11 03:12:55;;;;;;;13.40;10.07;;;17.30;99.90;;;;;;5033974;28;20401;-83
2021/07/11 03:15:22;;;;;;;14.10;10.50;;;17.30;99.90;;;;;;5033245;28;20044;-83
2021/07/11 03:17:54;;;;;;;15.18;10.65;;;17.30;99.90;;;;;;5049497;28;20028;-83
2021/07/11 03:20:22;;;;;;;14.82;11.05;;;17.30;99.90;;;;;;5033337;28;20219;-83
2021/07/11 03:22:51;;;;;;;15.73;11.10;;;17.40;99.90;;;;;;5033041;28;20029;-83
2021/07/11 03:25:20;;;;;;;14.63;11.48;;;17.40;99.90;;;;;;5033499;28;20045;-83
2021/07/11 03:27:48;;;;;;;12.98;10.00;;;17.40;99.90;;;;;;5033063;28;20088;-83
2021/07/11 03:30:18;;;;;;;11.00;9.68;;;17.40;99.90;;;;;;5049613;28;20136;-83
2021/07/11 03:32:45;;;;;;;;;;;17.40;99.90;;;;;;5049961;28;20085;-83
2021/07/11 03:35:14;;;;;;;13.50;9.77;;;17.40;99.90;;;;;;5033070;28;19935;-83
2021/07/11 03:37:45;;;;;;;14.20;11.57;;;17.40;99.90;;;;;;5033218;28;20028;-83
2021/07/11 03:40:20;;;;;;;12.97;10.03;;;17.30;99.90;;;;;;5033041;28;20100;-83
2021/07/11 03:42:48;;;;;;;13.60;10.38;;;17.30;99.90;;;;;;5032977;28;20039;-83
2021/07/11 03:45:14;;;;;;;15.55;11.02;;;17.30;99.90;;;;;;5049127;28;20029;-83
2021/07/11 03:48:08;;;;;;;15.73;10.88;;;17.30;99.90;;;;;;5026073;28;20459;-83
2021/07/11 03:50:37;;;;;;;13.38;10.63;;;17.40;99.90;;;;;;5042804;28;20052;-83
2021/07/11 03:53:06;;;;;;;14.93;11.80;;;17.40;99.90;;;;;;5032808;28;20040;-83
2021/07/11 03:55:34;;;;;;;13.87;11.80;;;17.40;99.90;;;;;;5029140;28;20041;-83
2021/07/11 03:58:01;;;;;;;16.23;12.25;;;17.40;99.90;;;;;;5019477;28;20025;-83
2021/07/11 04:00:27;;;;;;;13.52;10.95;;;17.30;99.90;;;;;;5049359;28;20056;-83
2021/07/11 04:02:54;;;;;;;13.70;11.68;;;17.30;99.90;;;;;;5032453;28;20037;-83
2021/07/11 04:05:28;;;;;;;14.43;11.40;;;17.30;99.90;;;;;;5049131;28;20048;-83
2021/07/11 04:07:55;;;;;;;14.85;10.95;;;17.30;99.90;;;;;;5032416;28;20033;-83
2021/07/11 04:10:25;;;;;;;14.52;11.43;;;17.40;99.90;;;;;;5032435;28;20052;-83
2021/07/11 04:12:52;;;;;;;12.25;10.00;;;17.40;99.90;;;;;;5032168;28;20032;-83
2021/07/11 04:15:18;;;;;;;16.73;11.73;;;17.40;99.90;;;;;;5048436;28;20124;-83
2021/07/11 04:17:54;;;;;;;13.32;11.75;;;17.40;99.90;;;;;;5031343;28;20024;-83
2021/07/11 04:20:22;;;;;;;14.88;10.18;;;17.30;99.90;;;;;;5031631;28;20029;-83
2021/07/11 04:22:51;;;;;;;13.23;10.43;;;17.40;99.90;;;;;;5065223;28;20029;-83
2021/07/11 04:25:18;;;;;;;16.20;11.27;;;17.50;99.90;;;;;;5031437;28;20033;-82
2021/07/11 04:27:44;;;;;;;16.30;11.90;;;17.50;99.90;;;;;;5031512;28;20044;-83
2021/07/11 04:30:10;;;;;;;13.02;10.13;;;17.50;99.90;;;;;;5031639;28;20048;-83
2021/07/11 04:32:36;;;;;;;13.75;11.70;;;17.50;99.90;;;;;;5047309;28;20029;-83
2021/07/11 04:35:04;;;;;;;14.48;11.30;;;17.40;99.90;;;;;;5031494;28;20028;-83
2021/07/11 04:37:29;;;;;;;14.93;10.32;;;17.50;99.90;;;;;;5031262;28;20507;-83
2021/07/11 04:39:55;;;;;;;14.60;10.23;;;17.50;99.90;;;;;;5031358;28;20029;-84
2021/07/11 04:42:21;;;;;;;15.88;10.98;;;17.50;99.90;;;;;;5047809;28;20041;-83
2021/07/11 04:44:46;;;;;;;13.07;10.93;;;17.50;99.90;;;;;;5047726;28;20021;-83
2021/07/11 04:47:13;;;;;;;15.82;11.18;;;17.50;99.90;;;;;;5046078;28;20028;-83
2021/07/11 04:49:40;;;;;;;15.65;11.38;;;17.50;99.90;;;;;;5047107;28;20044;-83
2021/07/11 04:52:06;;;;;;;16.63;12.48;;;17.50;99.90;;;;;;5032619;28;20072;-83
2021/07/11 04:54:33;;;;;;;14.38;10.70;;;17.60;99.90;;;;;;5031849;28;20052;-83
2021/07/11 04:56:59;;;;;;;14.63;11.90;;;17.60;99.90;;;;;;5030894;28;20025;-83
2021/07/11 04:59:24;;;;;;;15.77;11.43;;;17.60;99.90;;;;;;5047624;28;20059;-83
2021/07/11 05:01:50;;;;;;;14.80;11.25;;;17.60;99.90;;;;;;5030920;28;20049;-83
2021/07/11 05:04:16;;;;;;;14.30;11.43;;;17.60;99.90;;;;;;5030927;28;20052;-83
2021/07/11 05:06:41;;;;;;;17.60;12.32;;;17.60;99.90;;;;;;5030799;28;20036;-83
2021/07/11 05:09:08;;;;;;;16.55;13.07;;;17.70;99.90;;;;;;5030633;28;20047;-83
2021/07/11 05:11:34;;;;;;;14.40;11.55;;;17.60;99.90;;;;;;5030510;28;20093;-83
2021/07/11 05:14:00;;;;;;;14.65;11.60;;;17.70;99.90;;;;;;5030551;28;20055;-82
2021/07/11 05:16:26;;;;;;;17.52;13.15;;;17.70;99.90;;;;;;5046814;28;20037;-83
2021/07/11 05:18:51;;;;;;;12.60;10.82;;;17.80;99.90;;;;;;5030468;28;20074;-83
2021/07/11 05:21:17;;;;;;;15.25;12.13;;;17.80;99.90;;;;;;5047089;28;20123;-83
2021/07/11 05:23:43;;;;;;;16.42;13.18;;;17.80;99.90;;;;;;5064885;28;20155;-83
2021/07/11 05:26:08;;;;;;;14.80;12.80;;;17.70;99.90;;;;;;5046846;28;20032;-83
2021/07/11 05:28:34;;;;;;;15.35;12.02;;;17.80;99.90;;;;;;5046867;28;20036;-83
2021/07/11 05:31:00;;;;;;;15.20;12.02;;;17.90;99.90;;;;;;5047054;28;20037;-83
2021/07/11 05:33:25;;;;;;;15.23;11.40;;;17.80;99.90;;;;;;5030179;28;20029;-83
2021/07/11 05:35:51;;;;;;;15.80;12.13;;;17.80;99.90;;;;;;5030431;28;20029;-83
2021/07/11 05:38:17;;;;;;;16.65;13.25;;;17.80;99.90;;;;;;5046841;28;20346;-83
2021/07/11 05:40:42;;;;;;;15.23;12.32;;;17.90;99.90;;;;;;5046684;28;20049;-83
2021/07/11 05:43:08;;;;;;;15.63;12.35;;;18.00;99.90;;;;;;5065002;28;20040;-83
2021/07/11 05:45:34;;;;;;;14.98;11.80;;;18.00;99.90;;;;;;5046807;28;20049;-83
2021/07/11 05:48:00;;;;;;;16.48;13.15;;;18.00;99.90;;;;;;5029240;28;20499;-83
2021/07/11 05:50:26;;;;;;;14.82;12.27;;;18.10;99.90;;;;;;5029893;28;20049;-83
2021/07/11 05:52:51;;;;;;;15.50;11.93;;;18.30;99.90;;;;;;5030490;28;20025;-83
2021/07/11 05:55:17;;;;;;;15.00;12.38;;;18.30;99.90;;;;;;5030006;28;20067;-83
2021/07/11 05:57:42;;;;;;;15.20;12.32;;;18.40;99.90;;;;;;5030177;28;20029;-83
2021/07/11 06:00:11;;;;;;;15.00;12.18;;;18.40;99.90;;;;;;5046858;28;20072;-83
2021/07/11 06:02:40;;;;;;;16.00;12.88;;;18.50;99.90;;;;;;5047592;28;20071;-83
2021/07/11 06:05:05;;;;;;;16.55;13.38;;;18.70;99.90;;;;;;5030143;28;20033;-83
2021/07/11 06:07:31;;;;;;;15.18;12.18;;;18.90;99.90;;;;;;5030353;28;20044;-84
2021/07/11 06:09:59;;;;;;;15.38;12.05;;;19.10;99.90;;;;;;5030222;28;20047;-84
2021/07/11 06:12:25;;;;;;;13.65;11.70;;;19.20;99.90;;;;;;5043970;28;20032;-84
2021/07/11 06:14:51;;;;;;;15.38;13.50;;;19.30;99.90;;;;;;5029791;28;20080;-83
2021/07/11 06:17:16;;;;;;;16.95;12.65;;;19.50;99.90;;;;;;5029779;28;20064;-84
2021/07/11 06:19:42;;;;;;;16.90;14.05;;;19.60;99.90;;;;;;5029845;28;20036;-84
2021/07/11 06:22:07;;;;;;;15.95;13.32;;;19.60;99.90;;;;;;5046426;28;20052;-84
2021/07/11 06:24:33;;;;;;;16.10;12.95;;;19.80;99.90;;;;;;5046461;28;20044;-83
2021/07/11 06:26:59;;;;;;;13.23;11.82;;;20.10;99.90;;;;;;5029564;28;20040;-84
2021/07/11 06:29:24;;;;;;;12.02;10.65;;;20.40;99.90;;;;;;5046426;28;20127;-84
2021/07/11 06:31:50;;;;;;;15.32;11.93;;;20.50;99.90;;;;;;5046463;28;20128;-84
2021/07/11 06:34:16;;;;;;;14.45;12.32;;;20.60;99.90;;;;;;5029708;28;20025;-84
2021/07/11 06:36:41;;;;;;;13.80;12.05;;;20.70;99.90;;;;;;5030189;28;20068;-85
2021/07/11 06:39:07;;;;;;;12.25;9.95;;;20.60;99.90;;;;;;5046357;28;20029;-84
2021/07/11 06:41:33;;;;;;;12.50;9.93;;;20.80;99.90;;;;;;5029888;28;20029;-85
2021/07/11 06:43:59;;;;;;;11.43;9.40;;;20.90;99.90;;;;;;5046325;28;20036;-84
2021/07/11 06:46:24;;;;;;;10.30;8.75;;;21.10;99.90;;;;;;5031756;28;20142;-85
2021/07/11 06:48:50;;;;;;;9.52;7.80;;;21.10;99.90;;;;;;5031786;28;20048;-84
2021/07/11 06:51:16;;;;;;;10.85;8.13;;;21.10;99.90;;;;;;5033272;28;20115;-85
2021/07/11 06:53:41;;;;;;;12.25;10.65;;;21.20;99.90;;;;;;5033203;28;20036;-85
2021/07/11 06:56:07;;;;;;;12.60;11.32;;;21.00;99.90;;;;;;5049684;28;20028;-85
2021/07/11 06:58:33;;;;;;;11.32;10.18;;;20.90;99.90;;;;;;5033266;28;20037;-83
2021/07/11 07:00:59;;;;;;;11.48;8.75;;;20.70;99.90;;;;;;5033399;28;20033;-84
2021/07/11 07:03:24;;;;;;;9.85;8.10;;;21.00;99.90;;;;;;5032885;28;20182;-83
2021/07/11 07:05:51;;;;;;;10.63;9.38;;;21.10;99.90;;;;;;5032748;28;20072;-84
2021/07/11 07:08:17;;;;;;;11.32;10.15;;;21.00;99.90;;;;;;5066670;28;20033;-84
2021/07/11 07:10:42;;;;;;;12.15;10.85;;;21.10;99.90;;;;;;5032479;28;20037;-84
2021/07/11 07:13:08;;;;;;;12.60;11.35;;;21.20;99.90;;;;;;5049086;28;20048;-84
2021/07/11 07:15:34;;;;;;;11.32;8.95;;;21.40;99.90;;;;;;5049378;28;20092;-84
2021/07/11 07:17:59;;;;;;;11.48;10.20;;;21.70;99.90;;;;;;5032795;28;20511;-84
2021/07/11 07:20:25;;;;;;;13.80;12.30;;;21.40;99.90;;;;;;5032720;28;20032;-84
2021/07/11 07:22:51;;;;;;;11.57;10.40;;;21.30;99.90;;;;;;5049510;28;20029;-84
2021/07/11 07:25:17;;;;;;;13.52;12.10;;;21.80;99.90;;;;;;5032677;28;20037;-84
2021/07/11 07:27:45;;;;;;;13.75;12.15;;;21.80;99.90;;;;;;5028714;28;20025;-85
2021/07/11 07:30:15;;;;;;;13.98;12.57;;;21.40;99.90;;;;;;5029528;28;20195;-84
2021/07/11 07:32:41;;;;;;;11.55;10.35;;;21.10;99.90;;;;;;5029343;28;20060;-85
2021/07/11 07:35:07;;;;;;;10.77;9.68;;;21.20;99.90;;;;;;5046903;28;20056;-83
2021/07/11 07:37:33;;;;;;;12.90;11.48;;;21.10;99.90;;;;;;5012723;28;20032;-84
2021/07/11 07:40:04;;;;;;;13.35;12.05;;;21.10;99.90;;;;;;5012899;28;20477;-84
2021/07/11 07:42:31;;;;;;;14.07;12.68;;;21.00;99.90;;;;;;5028723;28;20028;-84
2021/07/11 07:44:57;;;;;;;12.32;10.80;;;20.70;99.90;;;;;;5028915;28;20040;-85
2021/07/11 07:47:23;;;;;;;12.23;11.02;;;20.80;99.90;;;;;;5012380;28;20029;-84
2021/07/11 07:49:49;;;;;;;14.00;11.77;;;20.60;99.90;;;;;;5012197;28;20049;-84
2021/07/11 07:52:14;;;;;;;16.50;14.70;;;20.50;99.90;;;;;;5012173;28;20374;-84
2021/07/11 07:54:40;;;;;;;15.52;12.73;;;20.60;99.90;;;;;;5018076;28;20037;-84
2021/07/11 07:57:06;;;;;;;21.23;17.33;;;20.50;99.90;;;;;;5047306;28;20025;-82
2021/07/11 07:59:32;;;;;;;18.15;15.57;;;20.00;99.90;;;;;;5032326;28;20052;-83
2021/07/11 08:01:58;;;;;;;19.25;14.90;;;20.10;99.90;;;;;;5032044;28;20064;-83
2021/07/11 08:04:23;;;;;;;18.70;14.70;;;20.10;99.90;;;;;;5032074;28;20056;-84
2021/07/11 08:06:49;;;;;;;18.35;15.35;;;20.10;99.90;;;;;;5031576;28;20033;-83
2021/07/11 08:09:16;;;;;;;19.02;14.73;;;20.10;99.90;;;;;;5031985;28;20052;-84
2021/07/11 08:11:42;;;;;;;18.50;15.20;;;20.10;99.90;;;;;;5031575;28;20029;-85
2021/07/11 08:14:08;;;;;;;20.77;16.92;;;20.00;99.90;;;;;;5048017;28;20149;-84
2021/07/11 08:16:34;;;;;;;25.20;19.77;;;19.80;99.90;;;;;;5065756;28;20025;-83
2021/07/11 08:19:00;;;;;;;23.35;17.67;;;19.70;99.90;;;;;;5031413;28;20108;-84
2021/07/11 08:21:26;;;;;;;20.80;16.40;;;19.70;99.90;;;;;;5062922;28;20043;-84
2021/07/11 08:23:54;;;;;;;20.73;15.90;;;20.00;99.90;;;;;;5048107;28;20029;-83
2021/07/11 08:26:20;;;;;;;25.58;19.95;;;19.90;99.90;;;;;;5031259;28;20032;-84
2021/07/11 08:28:45;;;;;;;26.42;20.13;;;19.90;99.90;;;;;;5031347;28;20039;-84
2021/07/11 08:31:11;;;;;;;24.25;18.35;;;19.70;99.90;;;;;;5031346;28;20041;-84
2021/07/11 08:33:36;;;;;;;25.40;19.15;;;19.70;99.90;;;;;;5047612;28;20033;-83
2021/07/11 08:36:02;;;;;;;23.83;19.80;;;19.70;99.90;;;;;;5046307;28;20036;-81
2021/07/11 08:38:28;;;;;;;23.38;17.15;;;19.70;99.90;;;;;;5047513;28;20025;-83
2021/07/11 08:40:53;;;;;;;21.75;16.90;;;20.00;99.90;;;;;;5047751;28;20465;-83
2021/07/11 08:43:20;;;;;;;22.83;18.10;;;20.20;99.90;;;;;;5031125;28;20116;-84
2021/07/11 08:45:45;;;;;;;24.63;19.67;;;20.00;99.90;;;;;;5047475;28;20396;-83
2021/07/11 08:48:12;;;;;;;24.73;18.85;;;20.20;99.90;;;;;;5046151;28;20063;-83
2021/07/11 08:50:37;;;;;;;24.38;19.08;;;20.10;99.90;;;;;;5030927;28;20076;-83
2021/07/11 08:53:04;;;;;;;22.50;17.83;;;20.20;99.90;;;;;;5031008;28;20158;-83
2021/07/11 08:55:29;;;;;;;24.00;19.33;;;20.50;99.90;;;;;;5046523;28;20062;-83
2021/07/11 08:57:57;;;;;;;25.67;19.77;;;20.40;99.90;;;;;;5047326;28;20080;-83
2021/07/11 09:00:32;;;;;;;23.75;18.17;;;20.40;99.90;;;;;;5064953;28;20025;-83
2021/07/11 09:02:58;;;;;;;27.33;21.52;;;20.30;99.90;;;;;;5030579;28;20112;-83
2021/07/11 09:05:32;;;;;;;23.83;18.05;;;19.90;99.90;;;;;;5047297;28;20423;-83
2021/07/11 09:08:10;;;;;;;20.65;17.45;;;20.00;99.90;;;;;;5046465;28;20029;-83
2021/07/11 09:11:00;;;;;;;22.67;19.25;;;20.30;99.90;;;;;;5030865;28;20124;-83
2021/07/11 09:13:32;;;;;;;18.88;14.85;;;20.50;99.90;;;;;;5029939;28;20051;-84
2021/07/11 09:15:59;;;;;;;19.52;15.02;;;20.80;99.90;;;;;;5030598;28;20040;-84
2021/07/11 09:18:30;;;;;;;21.00;16.60;;;21.00;99.90;;;;;;5031051;28;20029;-83
2021/07/11 09:21:08;;;;;;;23.25;17.52;;;20.70;99.90;;;;;;5047783;28;20067;-83
2021/07/11 09:23:35;;;;;;;21.48;18.10;;;20.70;99.90;;;;;;5031953;28;20173;-84
2021/07/11 09:26:14;;;;;;;22.70;18.10;;;20.70;99.90;;;;;;5031902;28;20056;-84
2021/07/11 09:28:51;;;;;;;19.63;14.82;;;20.90;99.90;;;;;;5031475;28;20025;-83
2021/07/11 09:31:20;;;;;;;24.02;17.73;;;20.90;99.90;;;;;;5030538;28;20029;-84
2021/07/11 09:33:56;;;;;;;20.60;15.80;;;20.80;99.90;;;;;;5030323;28;20029;-84
2021/07/11 09:36:23;;;;;;;18.73;16.00;;;20.80;99.90;;;;;;5065083;28;20036;-83
2021/07/11 09:38:54;;;;;;;22.63;18.52;;;20.50;99.90;;;;;;5030754;28;20040;-84
2021/07/11 09:41:24;;;;;;;22.90;17.98;;;20.40;99.90;;;;;;5030753;28;20043;-84
2021/07/11 09:43:52;;;;;;;18.80;14.77;;;20.60;99.90;;;;;;5065107;28;20077;-84
2021/07/11 09:46:19;;;;;;;21.10;16.25;;;21.30;99.90;;;;;;5064678;28;20025;-84
2021/07/11 09:48:49;;;;;;;22.30;16.40;;;21.10;99.90;;;;;;5044011;28;20041;-84
2021/07/11 09:51:25;;;;;;;15.15;12.20;;;21.10;99.90;;;;;;5011364;28;20121;-84
2021/07/11 09:53:53;;;;;;;19.73;16.00;;;21.40;99.90;;;;;;5022785;28;20107;-84
2021/07/11 09:56:36;;;;;;;18.25;15.25;;;21.00;99.90;;;;;;5009208;28;20080;-85
2021/07/11 09:59:05;;;;;;;9.48;8.35;;;21.20;99.90;;;;;;5033791;28;20060;-85
2021/07/11 10:01:32;;;;;;;18.15;14.55;;;21.50;99.90;;;;;;5024185;28;20026;-84
2021/07/11 10:03:59;;;;;;;14.32;12.57;;;21.20;99.90;;;;;;5028041;28;20025;-85
2021/07/11 10:06:29;;;;;;;14.77;12.63;;;21.30;99.90;;;;;;5010506;28;20030;-85
2021/07/11 10:09:01;;;;;;;13.10;11.75;;;21.50;99.90;;;;;;5028060;28;20033;-84
2021/07/11 10:11:28;;;;;;;16.23;12.65;;;22.00;99.90;;;;;;5023218;28;20485;-85
2021/07/11 10:13:54;;;;;;;20.02;15.13;;;21.90;99.90;;;;;;5024114;28;20053;-85
2021/07/11 10:16:23;;;;;;;20.77;16.13;;;21.50;99.90;;;;;;5021921;28;20054;-85
2021/07/11 10:19:00;;;;;;;15.38;13.60;;;21.20;99.90;;;;;;5005148;28;20053;-85
2021/07/11 10:21:28;;;;;;;19.13;14.80;;;21.20;99.90;;;;;;5008114;28;20053;-82
2021/07/11 10:23:53;;;;;;;19.50;15.60;;;21.10;99.90;;;;;;5024067;28;20040;-85
2021/07/11 10:26:20;;;;;;;17.83;14.15;;;21.00;99.90;;;;;;5025926;28;20025;-85
2021/07/11 10:28:52;;;;;;;19.08;15.18;;;21.30;99.90;;;;;;5030271;28;20037;-84
2021/07/11 10:31:46;;;;;;;21.25;17.50;;;21.40;99.90;;;;;;5013863;28;20033;-84
2021/07/11 10:34:23;;;;;;;20.52;15.77;;;21.80;99.90;;;;;;5028999;28;20135;-86
2021/07/11 10:36:49;;;;;;;21.05;15.90;;;21.90;99.90;;;;;;5026500;28;20064;-85
2021/07/11 10:39:16;;;;;;;20.58;16.77;;;22.20;99.90;;;;;;5008043;28;20029;-84
2021/07/11 10:41:50;;;;;;;17.38;13.63;;;21.70;99.90;;;;;;5027691;28;20133;-85
2021/07/11 10:44:26;;;;;;;16.40;12.85;;;21.80;99.90;;;;;;5013384;28;20026;-86
2021/07/11 10:46:57;;;;;;;19.75;15.55;;;22.10;99.90;;;;;;5027576;28;20594;-83
2021/07/11 10:49:35;;;;;;;20.00;13.82;;;21.70;99.90;;;;;;5028954;28;20197;-86
2021/07/11 10:52:06;;;;;;;15.65;13.48;;;21.70;99.90;;;;;;5033109;28;20033;-85
2021/07/11 10:54:53;;;;;;;15.52;12.35;;;21.90;99.90;;;;;;5068464;28;20055;-85
2021/07/11 10:57:36;;;;;;;16.35;13.00;;;22.10;99.90;;;;;;5035904;28;20033;-84
2021/07/11 11:00:25;;;;;;;16.45;12.82;;;22.20;99.90;;;;;;5033547;28;20037;-84
2021/07/11 11:02:52;;;;;;;15.73;12.38;;;22.20;99.90;;;;;;5037252;28;20086;-85
2021/07/11 11:05:23;;;;;;;14.43;11.27;;;22.30;99.90;;;;;;5070098;28;20499;-89
2021/07/11 11:07:55;;;;;;;12.35;9.32;;;22.50;99.90;;;;;;5040087;28;20028;-85
2021/07/11 11:10:35;;;;;;;15.80;11.65;;;23.40;99.90;;;;;;5047195;28;20048;-84
2021/07/11 11:13:10;;;;;;;14.82;11.50;;;23.60;99.90;;;;;;5029136;28;20080;-84
2021/07/11 11:15:45;;;;;;;15.73;10.90;;;23.40;99.90;;;;;;5028961;28;20066;-84
2021/07/11 11:18:37;;;;;;;12.43;10.40;;;22.90;99.90;;;;;;5048777;28;20120;-83
2021/07/11 11:21:11;;;;;;;11.35;9.95;;;22.80;99.90;;;;;;5020557;28;20130;-84
2021/07/11 11:23:43;;;;;;;9.80;8.40;;;22.50;99.90;;;;;;5043232;28;20033;-84
2021/07/11 11:26:15;;;;;;;10.25;9.07;;;23.20;99.90;;;;;;5049169;28;20048;-85
2021/07/11 11:28:42;;;;;;;11.90;9.88;;;23.10;99.90;;;;;;5031867;28;20037;-82
2021/07/11 11:31:13;;;;;;;12.73;9.77;;;22.80;99.90;;;;;;5029579;28;20038;-83
2021/07/11 11:33:54;;;;;;;10.27;8.40;;;22.90;99.90;;;;;;5031710;28;20028;-83
2021/07/11 11:36:29;;;;;;;12.00;8.82;;;23.10;99.90;;;;;;5066933;28;20033;-84
2021/07/11 11:38:57;;;;;;;13.20;10.43;;;23.00;99.90;;;;;;5028076;28;20053;-83
2021/07/11 11:41:24;;;;;;;14.85;10.25;;;22.60;99.90;;;;;;5032834;28;20029;-83
2021/07/11 11:43:50;;;;;;;11.65;8.52;;;22.50;99.90;;;;;;5032543;28;20416;-84
2021/07/11 11:46:27;;;;;;;7.22;6.35;;;22.70;99.90;;;;;;5048704;28;20101;-83
2021/07/11 11:48:54;;;;;;;7.47;6.68;;;22.90;99.90;;;;;;5048585;28;20045;-83
2021/07/11 11:51:20;;;;;;;6.85;5.25;;;23.00;99.90;;;;;;5048980;28;20033;-83
2021/07/11 11:53:46;;;;;;;6.30;5.28;;;22.90;99.90;;;;;;5048973;28;20061;-82
2021/07/11 11:56:15;;;;;;;5.07;4.55;;;22.80;99.90;;;;;;5028898;28;20030;-83
2021/07/11 11:58:42;;;;;;;8.32;7.45;;;23.00;99.90;;;;;;5048601;28;20033;-83
2021/07/11 12:01:13;;;;;;;6.28;5.10;;;22.60;99.90;;;;;;5048589;28;20056;-84
2021/07/11 12:03:41;;;;;;;10.43;8.05;;;22.70;99.90;;;;;;5048620;28;20037;-82
2021/07/11 12:06:09;;;;;;;9.23;8.00;;;22.30;99.90;;;;;;5031758;28;20037;-82
2021/07/11 12:08:39;;;;;;;12.63;10.10;;;22.10;99.90;;;;;;5063585;28;20107;-83
2021/07/11 12:11:06;;;;;;;8.65;7.60;;;21.90;99.90;;;;;;5048349;28;20036;-82
2021/07/11 12:13:33;;;;;;;8.55;6.85;;;22.20;99.90;;;;;;5047956;28;20037;-83
2021/07/11 12:16:01;;;;;;;8.68;7.10;;;22.40;99.90;;;;;;5027927;28;20043;-83
2021/07/11 12:18:27;;;;;;;8.10;6.80;;;22.50;99.90;;;;;;5027645;28;20029;-82
2021/07/11 12:20:54;;;;;;;8.18;7.28;;;22.60;99.90;;;;;;5028760;28;20043;-82
2021/07/11 12:23:20;;;;;;;8.27;7.28;;;22.70;99.90;;;;;;5028236;28;20070;-82
2021/07/11 12:26:01;;;;;;;5.88;5.28;;;22.60;99.90;;;;;;5028345;28;20069;-82
2021/07/11 12:28:27;;;;;;;8.00;6.30;;;22.40;99.90;;;;;;5027833;28;20041;-83
2021/07/11 12:30:54;;;;;;;7.68;6.80;;;22.30;99.90;;;;;;5028144;28;20029;-83
2021/07/11 12:33:37;;;;;;;11.48;9.70;;;22.20;99.90;;;;;;5027902;28;20036;-83
2021/07/11 12:36:11;;;;;;;8.30;7.45;;;22.00;99.90;;;;;;5027683;28;20048;-82
2021/07/11 12:38:38;;;;;;;8.82;7.20;;;22.40;99.90;;;;;;5027671;28;20044;-82
2021/07/11 12:41:07;;;;;;;9.25;7.07;;;22.50;99.90;;;;;;5027940;28;20420;-83